Time;durP1;ratioP1;P1;durP2;ratioP2;P2;SDS_P1;SDS_P2;PMS_P1;PMS_P2;Temp;Humidity;BMP_temperature;BMP_pressure;BME280_temperature;BME280_humidity;BME280_pressure;Samples;Min_cycle;Max_cycle;Signal;HPM_P1;HPM_P2
2021/11/04 00:01:54;;;;;;;2.05;1.40;;;7.80;90.20;;;;;;5036477;28;20232;-79
2021/11/04 00:04:25;;;;;;;1.60;1.40;;;7.80;90.20;;;;;;5035837;28;20231;-79
2021/11/04 00:06:54;;;;;;;1.60;1.50;;;7.80;90.20;;;;;;5037867;28;20214;-80
2021/11/04 00:09:22;;;;;;;2.00;1.73;;;7.80;90.90;;;;;;5037663;28;20592;-79
2021/11/04 00:11:49;;;;;;;1.80;1.70;;;7.80;91.20;;;;;;5036605;28;20207;-79
2021/11/04 00:14:16;;;;;;;2.10;1.90;;;7.80;91.70;;;;;;5040757;28;20423;-79
2021/11/04 00:16:43;;;;;;;3.00;1.80;;;7.80;91.90;;;;;;5048416;28;20217;-79
2021/11/04 00:19:10;;;;;;;5.30;2.00;;;7.80;91.90;;;;;;5051083;28;20228;-81
2021/11/04 00:21:37;;;;;;;2.67;1.80;;;7.90;91.80;;;;;;5052639;28;20669;-79
2021/11/04 00:24:05;;;;;;;1.63;1.52;;;7.90;92.20;;;;;;5047942;28;20227;-79
2021/11/04 00:26:33;;;;;;;2.20;1.60;;;7.90;92.20;;;;;;5048580;28;20225;-79
2021/11/04 00:29:00;;;;;;;1.70;1.60;;;7.90;92.50;;;;;;5037888;28;20291;-80
2021/11/04 00:31:27;;;;;;;1.75;1.65;;;7.90;92.70;;;;;;5036305;28;20742;-80
2021/11/04 00:33:55;;;;;;;3.28;2.13;;;7.80;93.00;;;;;;5043595;28;20267;-80
2021/11/04 00:36:23;;;;;;;2.28;2.03;;;7.70;93.40;;;;;;5055830;28;20206;-80
2021/11/04 00:38:50;;;;;;;3.45;2.15;;;7.70;94.20;;;;;;5043960;28;20211;-80
2021/11/04 00:41:18;;;;;;;3.28;2.00;;;7.70;94.80;;;;;;5039636;28;20758;-80
2021/11/04 00:43:46;;;;;;;2.22;1.90;;;7.70;95.50;;;;;;5037876;28;20291;-80
2021/11/04 00:46:13;;;;;;;1.73;1.63;;;7.70;95.70;;;;;;5037000;28;20228;-80
2021/11/04 00:48:40;;;;;;;2.00;1.80;;;7.60;96.10;;;;;;5035584;28;20216;-79
2021/11/04 00:51:09;;;;;;;1.60;1.50;;;7.60;96.50;;;;;;5036035;28;20216;-79
2021/11/04 00:53:36;;;;;;;2.20;2.00;;;7.60;96.10;;;;;;5036722;28;20747;-80
2021/11/04 00:56:04;;;;;;;2.00;1.88;;;7.60;96.20;;;;;;5038709;28;20212;-80
2021/11/04 00:58:30;;;;;;;2.20;1.95;;;7.50;96.60;;;;;;5039751;28;20216;-81
2021/11/04 01:00:59;;;;;;;2.38;2.17;;;7.50;97.10;;;;;;5038704;28;20236;-80
2021/11/04 01:03:26;;;;;;;3.03;2.72;;;7.50;97.40;;;;;;5037835;28;20581;-81
2021/11/04 01:05:53;;;;;;;3.13;2.30;;;7.40;97.80;;;;;;5039401;28;20235;-81
2021/11/04 01:08:20;;;;;;;2.67;2.45;;;7.40;97.90;;;;;;5039247;28;20212;-79
2021/11/04 01:10:47;;;;;;;2.97;2.67;;;7.40;98.40;;;;;;5037210;28;20230;-79
2021/11/04 01:13:14;;;;;;;3.67;2.78;;;7.40;98.50;;;;;;5036343;28;20298;-79
2021/11/04 01:15:41;;;;;;;3.20;2.90;;;7.40;98.80;;;;;;5037851;28;20234;-81
2021/11/04 01:18:10;;;;;;;3.65;2.95;;;7.40;98.70;;;;;;5038901;28;20221;-79
2021/11/04 01:20:37;;;;;;;5.03;3.80;;;7.40;98.90;;;;;;5040415;28;20235;-80
2021/11/04 01:23:03;;;;;;;3.20;2.90;;;7.40;99.40;;;;;;5042266;28;20209;-78
2021/11/04 01:25:31;;;;;;;4.00;3.13;;;7.40;99.40;;;;;;5039316;28;20228;-79
2021/11/04 01:27:58;;;;;;;3.25;2.95;;;7.40;98.80;;;;;;5050222;28;20207;-79
2021/11/04 01:30:25;;;;;;;3.90;3.20;;;7.40;98.70;;;;;;5049807;28;20236;-79
2021/11/04 01:32:52;;;;;;;2.90;2.55;;;7.40;98.20;;;;;;5051774;28;20198;-79
2021/11/04 01:35:20;;;;;;;4.88;3.30;;;7.30;98.20;;;;;;5054465;28;20216;-78
2021/11/04 01:37:47;;;;;;;3.33;3.00;;;7.40;98.30;;;;;;5037931;28;20213;-79
2021/11/04 01:40:14;;;;;;;8.02;3.90;;;7.30;97.80;;;;;;5036235;28;20235;-79
2021/11/04 01:42:41;;;;;;;5.28;3.63;;;7.30;98.10;;;;;;5037224;28;20268;-79
2021/11/04 01:45:08;;;;;;;4.93;3.80;;;7.30;98.40;;;;;;5040262;28;20228;-79
2021/11/04 01:47:35;;;;;;;8.68;5.25;;;7.20;98.60;;;;;;5039012;28;20214;-79
2021/11/04 01:50:03;;;;;;;4.68;4.07;;;7.20;99.10;;;;;;5040902;28;20215;-80
2021/11/04 01:52:31;;;;;;;4.88;4.38;;;7.20;99.30;;;;;;5041387;28;20235;-80
2021/11/04 01:54:58;;;;;;;4.97;4.10;;;7.20;99.50;;;;;;5044378;28;20204;-80
2021/11/04 01:57:25;;;;;;;4.82;3.85;;;7.20;99.80;;;;;;5039783;28;20292;-80
2021/11/04 01:59:52;;;;;;;6.18;4.20;;;7.20;99.50;;;;;;5039108;28;20229;-79
2021/11/04 02:02:24;;;;;;;4.82;3.88;;;7.20;99.50;;;;;;5038410;28;20311;-79
2021/11/04 02:04:56;;;;;;;7.65;4.05;;;7.20;99.50;;;;;;5038693;28;20227;-77
2021/11/04 02:07:43;;;;;;;4.88;4.03;;;7.20;99.60;;;;;;5038619;28;20624;-78
2021/11/04 02:10:14;;;;;;;5.15;4.30;;;7.10;99.50;;;;;;5038840;28;20247;-78
2021/11/04 02:12:50;;;;;;;8.70;4.53;;;7.10;99.50;;;;;;5039129;28;20207;-78
2021/11/04 02:15:20;;;;;;;4.00;3.70;;;7.10;99.40;;;;;;5042850;28;20372;-78
2021/11/04 02:17:48;;;;;;;6.50;5.00;;;7.10;99.00;;;;;;5042492;28;20264;-78
2021/11/04 02:23:03;;;;;;;4.95;4.45;;;7.10;98.70;;;;;;6071822;22;20488;-78
2021/11/04 02:25:33;;;;;;;4.82;4.07;;;7.20;99.00;;;;;;5057064;28;20228;-78
2021/11/04 02:38:24;;;;;;;7.50;4.47;;;7.00;97.70;;;;;;5766506;22;20283;-79
2021/11/04 02:40:53;;;;;;;4.88;4.10;;;7.00;98.30;;;;;;5050573;28;20233;-79
2021/11/04 02:43:21;;;;;;;5.85;4.05;;;7.00;98.30;;;;;;5055522;28;20275;-79
2021/11/04 02:45:48;;;;;;;8.40;4.50;;;7.10;98.80;;;;;;5052513;28;20233;-79
2021/11/04 02:48:16;;;;;;;5.50;4.40;;;7.10;98.50;;;;;;5040382;28;20235;-79
2021/11/04 02:50:46;;;;;;;4.53;4.13;;;7.10;98.70;;;;;;5045692;28;20224;-80
2021/11/04 02:53:15;;;;;;;5.78;4.72;;;7.10;99.10;;;;;;5038889;28;20693;-80
2021/11/04 02:55:43;;;;;;;4.20;3.80;;;7.00;99.30;;;;;;5037792;28;20211;-79
2021/11/04 03:38:43;;;;;;;9.00;5.20;;;6.80;99.90;;;;;;4833202;29;20246;-79
2021/11/04 03:41:12;;;;;;;7.32;5.75;;;6.70;99.90;;;;;;4854909;29;20225;-79
2021/11/04 03:43:40;;;;;;;5.55;4.95;;;6.80;99.90;;;;;;4857028;29;20308;-79
2021/11/04 03:46:08;;;;;;;6.43;5.78;;;6.70;99.90;;;;;;4861901;29;20290;-79
2021/11/04 03:48:36;;;;;;;6.88;5.13;;;6.70;99.90;;;;;;4865506;29;20202;-79
2021/11/04 03:51:04;;;;;;;7.03;5.85;;;6.70;99.90;;;;;;4865368;29;20234;-80
2021/11/04 03:53:32;;;;;;;7.70;6.03;;;6.70;99.90;;;;;;4880906;29;20242;-80
2021/11/04 03:56:01;;;;;;;6.75;5.80;;;6.70;99.90;;;;;;5069812;22;20238;-79
2021/11/04 03:58:30;;;;;;;6.93;6.22;;;6.70;99.90;;;;;;5044930;28;20200;-81
2021/11/04 04:00:58;;;;;;;9.05;6.13;;;6.70;99.90;;;;;;5044522;28;20593;-79
2021/11/04 04:03:27;;;;;;;7.25;6.28;;;6.70;99.90;;;;;;5047993;28;20210;-80
2021/11/04 04:06:02;;;;;;;8.27;6.15;;;6.70;99.90;;;;;;5047491;28;20219;-79
2021/11/04 04:08:31;;;;;;;5.72;5.10;;;6.60;99.90;;;;;;5049910;28;20643;-79
2021/11/04 04:11:00;;;;;;;7.13;6.15;;;6.60;99.90;;;;;;5042103;28;20754;-80
2021/11/04 04:13:27;;;;;;;6.50;4.75;;;6.60;99.90;;;;;;5044305;28;20265;-80
2021/11/04 04:15:54;;;;;;;4.97;4.47;;;6.60;99.90;;;;;;5042929;28;20671;-80
2021/11/04 04:18:21;;;;;;;6.50;4.90;;;6.60;99.90;;;;;;5050325;28;20274;-79
2021/11/04 04:20:47;;;;;;;5.78;4.68;;;6.60;99.90;;;;;;5050551;28;20262;-80
2021/11/04 04:23:16;;;;;;;6.30;4.30;;;6.60;99.90;;;;;;5038038;28;20283;-79
2021/11/04 08:07:11;;;;;;;19.60;12.38;;;7.10;99.90;;;;;;5055560;28;20223;-79
2021/11/04 08:09:38;;;;;;;15.68;10.60;;;7.10;99.90;;;;;;5054889;28;20299;-77
2021/11/04 08:12:05;;;;;;;19.10;12.15;;;7.10;99.90;;;;;;5055775;28;20238;-78
2021/11/04 08:14:32;;;;;;;18.75;11.77;;;7.10;99.90;;;;;;5056159;28;20211;-78
2021/11/04 08:16:59;;;;;;;17.48;11.00;;;7.10;99.90;;;;;;5055423;28;20188;-80
2021/11/04 08:19:26;;;;;;;18.15;11.88;;;7.10;99.90;;;;;;5054311;28;20232;-79
2021/11/04 08:21:53;;;;;;;18.35;12.32;;;7.10;99.90;;;;;;5053143;28;20210;-79
2021/11/04 08:24:21;;;;;;;15.82;11.30;;;7.20;99.90;;;;;;5047000;28;20254;-79
2021/11/04 08:26:49;;;;;;;18.65;12.00;;;7.20;99.90;;;;;;5047725;28;20491;-79
2021/11/04 08:29:16;;;;;;;18.85;11.25;;;7.20;99.90;;;;;;5045171;28;20409;-79
2021/11/04 08:31:42;;;;;;;20.08;10.95;;;7.10;99.90;;;;;;5055946;28;20250;-77
2021/11/04 08:34:09;;;;;;;17.45;11.65;;;7.20;99.90;;;;;;5050635;28;20242;-80
2021/11/04 08:40:13;;;;;;;18.58;11.40;;;7.20;99.90;;;;;;5004600;28;20216;-80
2021/11/04 08:42:40;;;;;;;18.40;12.57;;;7.20;99.90;;;;;;5010851;28;20208;-78
2021/11/04 08:45:08;;;;;;;21.75;13.35;;;7.30;99.90;;;;;;5014183;28;20224;-80
2021/11/04 08:47:36;;;;;;;21.00;13.82;;;7.30;99.90;;;;;;5014894;28;20210;-78
2021/11/04 08:50:05;;;;;;;25.08;15.07;;;7.20;99.90;;;;;;5006303;28;20331;-80
2021/11/04 08:52:32;;;;;;;21.70;14.25;;;7.20;99.90;;;;;;5003457;28;20528;-80
2021/11/04 08:55:00;;;;;;;22.38;14.40;;;7.20;99.90;;;;;;5003470;28;20251;-79
2021/11/04 08:57:29;;;;;;;20.83;13.45;;;7.20;99.90;;;;;;5002713;28;20266;-78
2021/11/04 08:59:56;;;;;;;25.15;16.08;;;7.20;99.90;;;;;;5002652;28;20229;-79
2021/11/04 09:02:25;;;;;;;26.38;14.15;;;7.20;99.90;;;;;;5005210;28;20209;-79
2021/11/04 09:04:52;;;;;;;32.65;15.07;;;7.30;99.90;;;;;;5009858;28;20212;-79
2021/11/04 09:07:21;;;;;;;23.73;14.82;;;7.30;99.90;;;;;;5009839;28;20265;-79
2021/11/04 09:09:48;;;;;;;26.63;15.95;;;7.40;99.90;;;;;;5012028;28;20252;-78
2021/11/04 09:12:17;;;;;;;21.42;14.35;;;7.30;99.90;;;;;;5016100;28;20218;-79
2021/11/04 09:14:45;;;;;;;29.20;15.52;;;7.30;99.90;;;;;;5017562;28;20212;-78
2021/11/04 09:17:14;;;;;;;22.38;14.80;;;7.40;99.90;;;;;;5020006;28;20269;-75
2021/11/04 09:19:41;;;;;;;23.88;15.18;;;7.40;99.90;;;;;;5019770;28;20281;-78
2021/11/04 09:22:09;;;;;;;29.00;15.13;;;7.40;99.90;;;;;;5013153;28;20309;-79
2021/11/04 09:24:36;;;;;;;25.25;15.68;;;7.40;99.90;;;;;;5011452;28;20202;-80
2021/11/04 09:27:04;;;;;;;24.90;15.23;;;7.50;99.90;;;;;;5015458;28;20209;-78
2021/11/04 09:29:31;;;;;;;32.33;18.00;;;7.50;99.90;;;;;;5035742;28;20295;-78
2021/11/04 09:31:59;;;;;;;28.00;16.25;;;7.50;99.90;;;;;;5059415;28;20191;-78
2021/11/04 09:34:28;;;;;;;26.95;16.73;;;7.60;99.90;;;;;;5058852;28;20220;-78
2021/11/04 09:36:55;;;;;;;30.15;17.52;;;7.60;99.90;;;;;;5058496;28;20211;-77
2021/11/04 09:39:22;;;;;;;26.08;16.80;;;7.60;99.90;;;;;;5058790;28;20243;-80
2021/11/04 09:41:51;;;;;;;28.88;16.88;;;7.50;99.90;;;;;;5054206;28;20273;-80
2021/11/04 09:44:23;;;;;;;30.02;18.10;;;7.50;99.90;;;;;;5047482;28;20680;-79
2021/11/04 09:46:50;;;;;;;32.80;18.17;;;7.50;99.90;;;;;;5042001;28;20229;-80
2021/11/04 09:49:19;;;;;;;31.67;17.50;;;7.60;99.90;;;;;;5051990;28;20234;-81
2021/11/04 09:51:54;;;;;;;30.80;18.60;;;7.60;99.90;;;;;;5054003;28;20238;-80
2021/11/04 09:54:49;;;;;;;34.20;20.05;;;7.50;99.90;;;;;;5048862;28;20194;-77
2021/11/04 09:57:19;;;;;;;30.15;18.70;;;7.60;99.90;;;;;;4988920;28;20220;-78
2021/11/04 09:59:46;;;;;;;41.40;20.10;;;7.60;99.90;;;;;;4996187;28;20229;-80
2021/11/04 10:02:17;;;;;;;33.15;19.13;;;7.50;99.90;;;;;;4979459;28;20246;-80
2021/11/04 10:04:49;;;;;;;34.60;19.08;;;7.50;99.90;;;;;;4981779;28;20218;-80
2021/11/04 10:10:03;;;;;;;33.70;19.85;;;7.60;99.90;;;;;;4987836;28;20250;-82
2021/11/04 10:12:30;;;;;;;35.55;19.63;;;7.60;99.90;;;;;;4979239;28;20241;-79
2021/11/04 10:15:12;;;;;;;33.58;20.52;;;7.60;99.90;;;;;;4979366;28;20217;-80
2021/11/04 10:17:39;;;;;;;34.45;19.30;;;7.60;99.90;;;;;;4979536;28;20596;-80
2021/11/04 10:20:17;;;;;;;32.60;19.33;;;7.60;99.90;;;;;;4979896;28;20748;-79
2021/11/04 10:22:44;;;;;;;33.55;20.70;;;7.60;99.90;;;;;;4980993;28;20686;-77
2021/11/04 10:25:22;;;;;;;33.17;18.50;;;7.60;99.90;;;;;;4980355;28;20206;-78
2021/11/04 10:27:48;;;;;;;32.55;20.05;;;7.60;99.90;;;;;;4992560;28;20236;-77
2021/11/04 10:39:05;;;;;;;30.00;19.40;;;7.50;99.90;;;;;;5123439;22;20273;-78
2021/11/04 10:41:38;;;;;;;28.60;19.67;;;7.60;99.90;;;;;;4921947;29;20208;-79
2021/11/04 10:44:06;;;;;;;30.30;18.40;;;7.60;99.90;;;;;;4923374;29;20290;-78
2021/11/04 10:46:41;;;;;;;32.50;19.70;;;7.60;99.90;;;;;;4927498;29;20631;-78
2021/11/04 10:49:08;;;;;;;28.45;18.52;;;7.60;99.90;;;;;;5004402;22;20235;-76
2021/11/04 10:51:35;;;;;;;31.70;20.40;;;7.60;99.90;;;;;;5041462;28;20554;-76
2021/11/04 10:54:04;;;;;;;27.95;17.77;;;7.70;99.90;;;;;;5040122;28;20216;-76
2021/11/04 10:56:33;;;;;;;30.25;18.92;;;7.70;99.90;;;;;;5036413;28;20203;-79
2021/11/04 10:59:06;;;;;;;28.38;17.65;;;7.70;99.90;;;;;;5038100;28;20637;-77
2021/11/04 11:01:37;;;;;;;28.17;18.17;;;7.70;99.90;;;;;;5035417;28;20293;-76
2021/11/04 11:04:08;;;;;;;33.10;18.30;;;7.70;99.90;;;;;;5036050;28;20286;-75
2021/11/04 11:06:38;;;;;;;31.33;18.95;;;7.80;99.90;;;;;;5035386;28;20577;-76
2021/11/04 11:09:07;;;;;;;29.85;19.50;;;7.80;99.90;;;;;;5034753;28;20228;-76
2021/11/04 11:11:38;;;;;;;25.83;16.98;;;7.90;99.90;;;;;;5035141;28;20248;-76
2021/11/04 11:14:05;;;;;;;28.13;18.85;;;7.90;99.90;;;;;;5034835;28;20204;-76
2021/11/04 11:16:34;;;;;;;30.35;19.48;;;8.00;99.90;;;;;;5034367;28;20218;-75
2021/11/04 11:19:01;;;;;;;29.80;18.67;;;7.90;99.90;;;;;;5034706;28;20261;-76
2021/11/04 11:21:34;;;;;;;27.83;20.20;;;7.90;99.90;;;;;;5034435;28;20206;-75
2021/11/04 11:24:02;;;;;;;29.13;18.88;;;7.90;99.90;;;;;;5034833;28;20530;-76
2021/11/04 11:26:29;;;;;;;28.50;19.35;;;7.90;99.90;;;;;;5034965;28;20223;-76
2021/11/04 11:28:59;;;;;;;24.33;17.25;;;8.00;99.90;;;;;;5034368;28;20239;-76
2021/11/04 11:31:27;;;;;;;25.35;18.30;;;8.00;99.90;;;;;;5038712;28;20219;-75
2021/11/04 11:34:31;;;;;;;26.33;18.60;;;8.10;99.90;;;;;;5035140;28;20657;-75
2021/11/04 11:37:11;;;;;;;27.63;18.08;;;8.20;99.70;;;;;;5034223;28;20209;-76
2021/11/04 11:39:40;;;;;;;24.27;16.25;;;8.30;99.20;;;;;;5033879;28;20232;-75
2021/11/04 11:42:19;;;;;;;20.45;14.95;;;8.40;98.20;;;;;;5036210;28;20210;-75
2021/11/04 11:44:56;;;;;;;22.98;15.82;;;8.40;96.50;;;;;;5035203;28;20239;-76
2021/11/04 11:47:37;;;;;;;22.60;16.48;;;8.40;95.70;;;;;;5034324;28;20689;-76
2021/11/04 11:50:20;;;;;;;23.55;16.27;;;8.40;94.70;;;;;;5034747;28;20240;-75
2021/11/04 11:52:52;;;;;;;20.40;15.75;;;8.40;94.40;;;;;;5035438;28;20201;-75
2021/11/04 11:55:20;;;;;;;23.15;15.02;;;8.30;94.20;;;;;;5036122;28;20271;-75
2021/11/04 11:58:19;;;;;;;22.92;15.88;;;8.20;94.20;;;;;;5042923;28;20226;-76
2021/11/04 12:01:08;;;;;;;19.38;14.40;;;8.30;94.40;;;;;;5040137;28;20650;-75
2021/11/04 12:04:00;;;;;;;22.50;15.82;;;8.20;93.70;;;;;;5043236;28;20215;-76
2021/11/04 12:06:54;;;;;;;22.13;16.08;;;8.20;93.70;;;;;;5040248;28;20210;-78
2021/11/04 12:09:43;;;;;;;23.88;15.80;;;8.20;93.90;;;;;;5036134;28;20279;-76
2021/11/04 12:12:44;;;;;;;20.58;15.13;;;8.10;93.30;;;;;;5037273;28;20193;-75
2021/11/04 12:15:12;;;;;;;21.40;15.00;;;8.10;93.80;;;;;;5038139;28;20556;-76
2021/11/04 12:17:40;;;;;;;21.65;15.80;;;8.10;94.00;;;;;;5043560;28;20254;-75
2021/11/04 12:20:08;;;;;;;22.95;15.60;;;8.10;94.60;;;;;;5040937;28;20289;-76
2021/11/04 12:22:38;;;;;;;23.65;16.33;;;8.10;94.70;;;;;;5040417;28;20211;-76
2021/11/04 12:25:08;;;;;;;23.30;17.15;;;8.10;95.10;;;;;;5038538;28;20193;-76
2021/11/04 12:27:37;;;;;;;24.60;16.80;;;8.00;95.30;;;;;;5041546;28;20233;-76
2021/11/04 12:30:20;;;;;;;23.75;16.25;;;8.10;95.60;;;;;;5038703;28;20226;-75
2021/11/04 12:33:02;;;;;;;23.00;15.32;;;8.10;95.50;;;;;;5036431;28;20221;-76
2021/11/04 12:35:46;;;;;;;23.13;15.10;;;8.10;95.40;;;;;;5036132;28;20217;-77
2021/11/04 12:38:16;;;;;;;23.38;16.02;;;8.20;95.90;;;;;;5035581;28;20207;-76
2021/11/04 12:40:43;;;;;;;26.00;17.35;;;8.20;95.60;;;;;;5037398;28;20219;-76
2021/11/04 12:43:11;;;;;;;22.75;15.50;;;8.30;95.70;;;;;;5035254;28;20307;-77
2021/11/04 12:45:43;;;;;;;23.70;16.40;;;8.20;95.50;;;;;;5033238;28;20196;-76
2021/11/04 12:48:12;;;;;;;22.10;16.48;;;8.30;95.80;;;;;;5033282;28;20279;-76
2021/11/04 12:50:40;;;;;;;21.00;16.08;;;8.20;95.50;;;;;;5032747;28;20234;-76
2021/11/04 12:53:09;;;;;;;23.27;15.32;;;8.30;95.50;;;;;;5033240;28;20213;-76
2021/11/04 12:55:36;;;;;;;22.30;16.00;;;8.20;95.00;;;;;;5033523;28;20213;-75
2021/11/04 12:58:05;;;;;;;19.88;14.73;;;8.30;95.40;;;;;;5033437;28;20212;-76
2021/11/04 13:00:33;;;;;;;25.60;16.13;;;8.30;95.40;;;;;;5033066;28;20300;-76
2021/11/04 13:03:00;;;;;;;21.25;15.40;;;8.40;95.30;;;;;;5033645;28;20272;-76
2021/11/04 13:05:28;;;;;;;21.88;15.77;;;8.40;94.80;;;;;;5034501;28;20244;-75
2021/11/04 13:07:57;;;;;;;21.48;15.70;;;8.60;94.70;;;;;;5033843;28;20595;-76
2021/11/04 13:10:27;;;;;;;19.52;14.70;;;8.70;94.20;;;;;;5032228;28;20212;-76
2021/11/04 13:13:00;;;;;;;21.55;15.55;;;8.70;93.00;;;;;;5033385;28;20297;-77
2021/11/04 13:15:28;;;;;;;19.75;14.65;;;8.70;92.50;;;;;;5039866;28;20215;-76
2021/11/04 13:17:58;;;;;;;22.52;15.38;;;8.70;93.00;;;;;;5054559;28;20194;-76
2021/11/04 13:20:28;;;;;;;19.33;15.70;;;8.80;92.50;;;;;;5055260;28;20202;-75
2021/11/04 13:22:58;;;;;;;22.75;15.85;;;8.80;91.60;;;;;;5053063;28;20684;-76
2021/11/04 13:25:30;;;;;;;20.90;16.10;;;9.00;91.80;;;;;;5055529;28;20179;-77
2021/11/04 13:27:59;;;;;;;20.55;14.93;;;9.10;91.30;;;;;;5044586;28;20230;-75
2021/11/04 13:30:40;;;;;;;22.63;15.75;;;9.20;90.30;;;;;;5037115;28;20689;-77
2021/11/04 13:33:08;;;;;;;19.27;14.60;;;9.20;90.30;;;;;;5035268;28;20209;-76
2021/11/04 13:35:38;;;;;;;18.65;14.32;;;9.30;90.00;;;;;;5034884;28;20242;-77
2021/11/04 13:38:13;;;;;;;20.63;14.65;;;9.20;89.60;;;;;;5032854;28;20220;-76
2021/11/04 13:40:45;;;;;;;17.02;13.57;;;9.30;88.70;;;;;;5032440;28;20297;-76
2021/11/04 13:43:15;;;;;;;18.05;13.88;;;9.40;87.60;;;;;;5040948;28;20222;-75
2021/11/04 13:45:42;;;;;;;20.23;15.05;;;9.40;87.40;;;;;;5053507;28;20234;-75
2021/11/04 13:48:09;;;;;;;19.65;13.85;;;9.50;85.50;;;;;;5055105;28;20230;-76
2021/11/04 13:50:40;;;;;;;18.40;14.32;;;9.60;85.30;;;;;;5055916;28;20242;-75
2021/11/04 13:53:15;;;;;;;19.92;14.23;;;9.70;83.30;;;;;;5057136;28;20198;-76
2021/11/04 13:55:42;;;;;;;19.75;13.57;;;9.70;83.20;;;;;;5043860;28;20308;-76
2021/11/04 13:58:09;;;;;;;14.77;12.73;;;9.70;81.20;;;;;;5035894;28;20203;-76
2021/11/04 14:00:36;;;;;;;17.15;13.57;;;9.70;80.70;;;;;;5035882;28;20211;-76
2021/11/04 14:03:06;;;;;;;21.35;13.73;;;9.70;79.80;;;;;;5036397;28;20286;-76
2021/11/04 14:06:00;;;;;;;15.75;11.52;;;9.70;79.20;;;;;;5035863;28;20297;-76
2021/11/04 14:08:41;;;;;;;14.95;12.30;;;9.70;78.80;;;;;;5017453;28;20234;-77
2021/11/04 14:11:13;;;;;;;21.35;14.00;;;9.50;79.50;;;;;;5035242;28;20217;-76
2021/11/04 14:14:08;;;;;;;15.40;12.60;;;9.50;79.90;;;;;;5035240;28;20210;-77
2021/11/04 14:16:36;;;;;;;16.60;12.25;;;9.40;78.30;;;;;;5023527;28;20293;-77
2021/11/04 14:19:05;;;;;;;16.65;11.38;;;9.50;78.90;;;;;;5037946;28;20768;-77
2021/11/04 14:21:35;;;;;;;15.07;11.48;;;9.60;78.30;;;;;;5037792;28;20423;-76
2021/11/04 14:24:05;;;;;;;14.00;10.80;;;9.50;77.70;;;;;;5038333;28;20215;-77
2021/11/04 14:26:34;;;;;;;14.52;11.15;;;9.50;77.90;;;;;;5038379;28;20244;-77
2021/11/04 14:29:01;;;;;;;11.93;9.70;;;9.50;76.80;;;;;;5037724;28;20325;-76
2021/11/04 14:31:29;;;;;;;14.70;10.95;;;9.40;78.00;;;;;;5038606;28;20241;-77
2021/11/04 14:33:55;;;;;;;12.23;9.85;;;9.30;78.40;;;;;;5037159;28;20268;-76
2021/11/04 14:36:23;;;;;;;12.70;10.40;;;9.20;79.40;;;;;;5039173;28;20211;-77
2021/11/04 14:38:51;;;;;;;12.23;10.05;;;9.10;80.70;;;;;;5037441;28;20230;-75
2021/11/04 14:41:18;;;;;;;12.43;9.70;;;9.10;82.10;;;;;;5038177;28;20205;-77
2021/11/04 14:43:45;;;;;;;13.40;9.55;;;9.00;83.10;;;;;;5037891;28;20241;-77
2021/11/04 14:46:12;;;;;;;14.68;10.73;;;9.00;84.20;;;;;;5037252;28;20297;-77
2021/11/04 14:48:39;;;;;;;10.82;9.27;;;8.90;85.10;;;;;;5035917;28;20238;-77
2021/11/04 14:51:06;;;;;;;10.82;8.50;;;9.00;85.90;;;;;;5035171;28;20210;-76
2021/11/04 14:53:33;;;;;;;9.75;8.75;;;9.00;84.80;;;;;;5036891;28;20216;-77
2021/11/04 14:56:03;;;;;;;9.82;8.82;;;8.90;84.70;;;;;;5036407;28;20666;-76
2021/11/04 14:58:30;;;;;;;11.23;8.80;;;8.80;85.50;;;;;;5035871;28;20236;-76
2021/11/04 15:00:57;;;;;;;11.00;9.00;;;8.80;84.60;;;;;;5036128;28;20285;-77
2021/11/04 15:03:24;;;;;;;9.25;8.35;;;8.80;84.60;;;;;;5037022;28;20214;-76
2021/11/04 15:05:52;;;;;;;8.70;7.80;;;8.80;84.60;;;;;;5037078;28;20228;-77
2021/11/04 15:08:19;;;;;;;10.57;8.85;;;8.80;84.70;;;;;;5040585;28;20266;-76
2021/11/04 15:10:46;;;;;;;13.73;7.65;;;8.80;84.60;;;;;;5040421;28;20208;-77
2021/11/04 15:13:14;;;;;;;11.77;8.63;;;8.70;84.90;;;;;;5040781;28;20245;-75
2021/11/04 15:15:41;;;;;;;9.20;7.95;;;8.70;86.60;;;;;;5038281;28;20300;-76
2021/11/04 15:18:08;;;;;;;9.43;8.43;;;8.70;89.00;;;;;;5036847;28;20269;-76
2021/11/04 15:20:35;;;;;;;9.65;8.40;;;8.60;90.90;;;;;;5038294;28;20208;-75
2021/11/04 15:23:03;;;;;;;12.27;9.45;;;8.50;92.30;;;;;;5048487;28;20673;-75
2021/11/04 15:25:32;;;;;;;12.73;9.10;;;8.40;93.90;;;;;;5048342;28;20208;-74
2021/11/04 15:27:59;;;;;;;10.35;8.65;;;8.40;95.40;;;;;;5049445;28;20735;-76
2021/11/04 15:30:28;;;;;;;12.68;9.48;;;8.40;96.50;;;;;;5045693;28;20205;-75
2021/11/04 15:32:55;;;;;;;11.00;9.05;;;8.40;97.40;;;;;;5043593;28;20205;-75
2021/11/04 15:35:22;;;;;;;10.27;8.73;;;8.30;98.20;;;;;;5039876;28;20655;-76
2021/11/04 15:37:50;;;;;;;14.57;9.38;;;8.30;99.50;;;;;;5037801;28;20296;-75
2021/11/04 15:40:17;;;;;;;11.18;8.40;;;8.30;99.90;;;;;;5036403;28;20759;-76
2021/11/04 15:42:44;;;;;;;11.95;9.65;;;8.30;99.90;;;;;;5036454;28;20705;-75
2021/11/04 15:45:11;;;;;;;10.27;8.60;;;8.20;99.90;;;;;;5035895;28;20215;-75
2021/11/04 15:47:40;;;;;;;11.60;9.60;;;8.20;99.90;;;;;;5038472;28;20256;-75
2021/11/04 15:50:09;;;;;;;10.85;9.30;;;8.20;99.90;;;;;;5040730;28;20237;-76
2021/11/04 15:52:37;;;;;;;9.93;8.93;;;8.10;99.90;;;;;;5047084;28;20243;-77
2021/11/04 15:55:05;;;;;;;12.15;9.50;;;8.10;99.90;;;;;;5040776;28;20212;-77
2021/11/04 15:57:33;;;;;;;12.18;9.50;;;8.10;99.90;;;;;;5038048;28;20660;-76
2021/11/04 16:00:00;;;;;;;9.98;8.55;;;8.00;99.90;;;;;;5035615;28;20227;-77
2021/11/04 16:02:28;;;;;;;11.82;9.73;;;8.00;99.90;;;;;;5036251;28;20209;-76
2021/11/04 16:04:57;;;;;;;11.25;8.63;;;8.10;99.90;;;;;;5036041;28;20236;-75
2021/11/04 16:07:24;;;;;;;9.20;8.05;;;8.10;99.90;;;;;;5034519;28;20215;-76
2021/11/04 16:09:52;;;;;;;9.73;8.57;;;8.10;99.90;;;;;;5034697;28;20243;-76
2021/11/04 16:12:19;;;;;;;9.52;8.55;;;8.10;99.90;;;;;;5033525;28;20223;-76
2021/11/04 16:14:47;;;;;;;9.75;8.65;;;8.10;99.90;;;;;;5033941;28;20236;-76
2021/11/04 16:17:14;;;;;;;8.82;7.75;;;8.00;99.90;;;;;;5033712;28;20212;-76
2021/11/04 16:19:41;;;;;;;9.23;7.47;;;8.10;99.90;;;;;;5034204;28;20596;-75
2021/11/04 16:22:10;;;;;;;8.20;6.53;;;8.00;99.90;;;;;;5036460;28;20226;-76
2021/11/04 16:24:36;;;;;;;7.45;5.82;;;8.00;99.90;;;;;;5038416;28;20243;-75
2021/11/04 16:27:04;;;;;;;9.90;6.80;;;8.00;99.90;;;;;;5037281;28;20227;-76
2021/11/04 16:29:31;;;;;;;7.15;6.55;;;8.00;99.90;;;;;;5034955;28;20232;-76
2021/11/04 16:31:57;;;;;;;5.90;5.30;;;8.00;99.80;;;;;;5034707;28;20299;-77
2021/11/04 16:34:24;;;;;;;6.43;5.70;;;7.90;99.40;;;;;;5034347;28;20310;-76
2021/11/04 16:37:37;;;;;;;9.55;5.28;;;7.80;99.10;;;;;;5039489;28;20207;-76
2021/11/04 16:40:07;;;;;;;5.95;5.35;;;7.80;99.10;;;;;;5034445;28;20740;-76
2021/11/04 16:42:34;;;;;;;6.20;5.60;;;7.80;99.00;;;;;;5035225;28;20743;-76
2021/11/04 16:45:01;;;;;;;7.00;6.45;;;7.80;98.70;;;;;;5036267;28;20218;-76
2021/11/04 16:47:28;;;;;;;6.05;5.45;;;7.80;98.60;;;;;;5036759;28;20211;-77
2021/11/04 16:49:56;;;;;;;5.65;5.15;;;7.80;98.20;;;;;;5070790;22;20231;-80
2021/11/04 16:52:24;;;;;;;9.00;6.50;;;7.80;98.30;;;;;;5054814;28;20211;-80
2021/11/04 16:54:52;;;;;;;7.93;5.55;;;7.80;98.00;;;;;;5045911;28;20248;-81
2021/11/04 16:57:20;;;;;;;5.80;5.22;;;7.80;97.40;;;;;;5045892;28;20216;-79
2021/11/04 16:59:47;;;;;;;6.78;5.13;;;7.80;96.60;;;;;;5050775;28;20228;-80
2021/11/04 17:02:14;;;;;;;8.55;5.65;;;7.80;96.20;;;;;;5054240;28;20200;-80
2021/11/04 17:04:41;;;;;;;6.07;5.47;;;7.80;95.80;;;;;;5050130;28;20712;-80
2021/11/04 17:07:08;;;;;;;6.00;5.47;;;7.80;95.00;;;;;;5038831;28;20669;-79
2021/11/04 17:09:36;;;;;;;6.30;5.70;;;7.90;94.80;;;;;;5040630;28;20263;-80
2021/11/04 17:12:07;;;;;;;5.75;5.15;;;7.90;94.10;;;;;;5040594;28;20281;-81
2021/11/04 17:14:36;;;;;;;5.38;4.88;;;7.90;93.60;;;;;;5044135;28;20212;-81
2021/11/04 17:17:03;;;;;;;6.65;5.82;;;7.90;93.40;;;;;;5054287;28;20188;-81
2021/11/04 17:19:30;;;;;;;5.38;4.88;;;8.00;93.50;;;;;;5055370;28;20249;-80
2021/11/04 17:21:57;;;;;;;5.35;4.85;;;8.00;93.30;;;;;;5050217;28;20217;-79
2021/11/04 17:24:24;;;;;;;6.05;5.22;;;8.00;92.80;;;;;;5045887;28;20212;-79
2021/11/04 17:26:51;;;;;;;5.90;5.28;;;8.00;92.80;;;;;;5042982;28;20228;-78
2021/11/04 17:29:18;;;;;;;7.32;6.25;;;7.90;93.50;;;;;;5043232;28;20280;-78
2021/11/04 17:31:47;;;;;;;7.75;6.40;;;7.90;93.80;;;;;;5042397;28;20244;-78
2021/11/04 17:34:14;;;;;;;10.27;5.53;;;7.90;94.00;;;;;;5041899;28;20228;-78
2021/11/04 17:36:43;;;;;;;5.63;5.10;;;7.90;93.90;;;;;;5043844;28;20244;-78
2021/11/04 17:39:09;;;;;;;8.43;5.93;;;7.90;94.00;;;;;;5042152;28;20275;-80
2021/11/04 17:41:36;;;;;;;6.10;5.50;;;7.80;94.20;;;;;;5045955;28;20212;-79
2021/11/04 17:44:05;;;;;;;5.63;5.07;;;7.90;94.00;;;;;;5049838;28;20300;-79
2021/11/04 17:46:34;;;;;;;6.40;5.80;;;7.90;93.70;;;;;;5044029;28;20207;-80
2021/11/04 17:49:03;;;;;;;8.00;5.90;;;7.90;93.50;;;;;;5044916;28;20287;-81